Time;durP1;ratioP1;P1;durP2;ratioP2;P2;SDS_P1;SDS_P2;PMS_P1;PMS_P2;Temp;Humidity;BMP_temperature;BMP_pressure;BME280_temperature;BME280_humidity;BME280_pressure;Samples;Min_cycle;Max_cycle;Signal;HPM_P1;HPM_P2
2021/08/26 00:07:01;;;;;;;;;;;;;;;10.81;80.62;99290.03;5072774;28;20332;-72
2021/08/26 00:09:30;;;;;;;;;;;;;;;10.88;80.77;99290.00;5092394;28;19931;-71
2021/08/26 00:11:59;;;;;;;;;;;;;;;10.99;80.73;99292.47;5072400;28;19931;-73
2021/08/26 00:14:28;;;;;;;;;;;;;;;10.94;80.55;99296.75;5094325;28;19924;-71
2021/08/26 00:16:57;;;;;;;;;;;;;;;10.87;80.58;99292.56;5097544;28;19928;-70
2021/08/26 00:19:27;;;;;;;;;;;;;;;10.79;80.44;99292.63;5097290;28;19924;-70
2021/08/26 00:21:57;;;;;;;;;;;;;;;10.73;80.05;99285.84;5090773;28;20015;-71
2021/08/26 00:24:26;;;;;;;;;;;;;;;10.61;80.25;99279.97;5077150;28;19925;-74
2021/08/26 00:26:55;;;;;;;;;;;;;;;10.47;79.99;99281.78;5086091;28;19951;-73
2021/08/26 00:29:24;;;;;;;;;;;;;;;10.35;80.13;99280.19;5066104;28;19924;-70
2021/08/26 00:32:01;;;;;;;;;;;;;;;10.34;81.00;99273.38;5084579;28;19945;-70
2021/08/26 00:34:31;;;;;;;;;;;;;;;10.33;81.00;99279.34;5085185;28;20349;-70
2021/08/26 00:37:03;;;;;;;;;;;;;;;10.37;80.63;99273.34;5070555;28;20087;-70
2021/08/26 00:39:32;;;;;;;;;;;;;;;10.30;80.63;99269.16;5079305;28;20031;-70
2021/08/26 00:42:01;;;;;;;;;;;;;;;10.15;80.53;99274.34;5077889;28;19932;-71
2021/08/26 00:44:30;;;;;;;;;;;;;;;10.17;80.57;99270.09;5090280;28;19924;-70
2021/08/26 00:46:59;;;;;;;;;;;;;;;10.13;80.94;99270.94;5093257;28;19929;-70
2021/08/26 00:49:30;;;;;;;;;;;;;;;10.15;81.45;99264.13;5082610;28;19924;-73
2021/08/26 00:52:01;;;;;;;;;;;;;;;10.20;81.10;99251.38;5077484;28;19935;-70
2021/08/26 00:54:30;;;;;;;;;;;;;;;10.28;81.33;99252.16;5080880;28;20015;-70
2021/08/26 00:57:04;;;;;;;;;;;;;;;10.28;81.26;99255.56;5078681;28;19924;-70
2021/08/26 00:59:33;;;;;;;;;;;;;;;10.28;81.36;99247.91;5076351;28;19947;-71
2021/08/26 01:02:06;;;;;;;;;;;;;;;10.37;81.30;99249.53;5078739;28;19924;-70
2021/08/26 01:04:39;;;;;;;;;;;;;;;10.47;81.49;99236.72;5085445;28;20019;-70
2021/08/26 01:07:15;;;;;;;;;;;;;;;10.63;81.55;99237.44;5096813;28;19932;-70
2021/08/26 01:09:50;;;;;;;;;;;;;;;10.68;81.00;99236.56;5087987;28;19946;-70
2021/08/26 01:12:23;;;;;;;;;;;;;;;10.73;80.85;99233.94;5076061;28;19925;-70
2021/08/26 01:14:52;;;;;;;;;;;;;;;10.83;80.62;99234.72;5075582;28;19924;-70
2021/08/26 01:17:21;;;;;;;;;;;;;;;10.93;80.20;99239.75;5094186;28;19928;-70
2021/08/26 01:19:58;;;;;;;;;;;;;;;11.02;80.25;99236.25;5076676;28;20019;-70
2021/08/26 01:22:48;;;;;;;;;;;;;;;11.17;79.89;99231.84;5050043;28;19925;-71
2021/08/26 01:25:19;;;;;;;;;;;;;;;11.29;79.20;99230.84;5036505;28;19925;-70
2021/08/26 01:27:51;;;;;;;;;;;;;;;11.31;78.57;99229.13;5035095;28;19932;-71
2021/08/26 01:30:24;;;;;;;;;;;;;;;11.35;78.57;99223.97;5051898;28;19929;-70
2021/08/26 01:32:59;;;;;;;;;;;;;;;11.38;78.10;99226.50;5034045;28;19932;-74
2021/08/26 01:35:31;;;;;;;;;;;;;;;11.37;77.77;99223.97;5045048;28;19964;-71
2021/08/26 01:38:01;;;;;;;;;;;;;;;11.38;77.80;99220.53;5041106;28;19925;-71
2021/08/26 01:40:34;;;;;;;;;;;;;;;11.36;77.22;99227.38;5036273;28;19961;-70
2021/08/26 01:43:05;;;;;;;;;;;;;;;11.37;77.16;99224.78;5034467;28;20460;-70
2021/08/26 01:45:34;;;;;;;;;;;;;;;11.33;76.90;99217.19;5034604;28;20012;-70
2021/08/26 01:48:03;;;;;;;;;;;;;;;11.21;76.89;99217.31;5033015;28;19925;-71
2021/08/26 01:50:31;;;;;;;;;;;;;;;11.27;77.58;99217.25;5041117;28;20398;-71
2021/08/26 01:53:00;;;;;;;;;;;;;;;11.31;77.38;99224.03;5057917;28;20271;-70
2021/08/26 01:55:29;;;;;;;;;;;;;;;11.29;77.17;99215.53;5095616;28;19924;-71
2021/08/26 01:57:58;;;;;;;;;;;;;;;11.16;76.59;99203.75;5084573;28;19924;-76
2021/08/26 02:00:28;;;;;;;;;;;;;;;11.03;77.46;99217.53;5074564;28;19930;-71
2021/08/26 02:02:57;;;;;;;;;;;;;;;11.06;77.68;99220.88;5095912;28;19924;-70
2021/08/26 02:05:26;;;;;;;;;;;;;;;11.19;77.42;99208.81;5095871;28;19974;-70
2021/08/26 02:07:55;;;;;;;;;;;;;;;11.26;77.83;99213.00;5081014;28;19978;-71
2021/08/26 02:10:24;;;;;;;;;;;;;;;11.24;77.17;99212.19;5083835;28;19977;-71
2021/08/26 02:12:53;;;;;;;;;;;;;;;10.84;76.98;99216.00;5077066;28;19935;-71
2021/08/26 02:15:23;;;;;;;;;;;;;;;10.59;77.49;99206.00;5075790;28;20011;-71
2021/08/26 02:17:53;;;;;;;;;;;;;;;10.44;77.88;99213.78;5073924;28;20435;-71
2021/08/26 02:20:22;;;;;;;;;;;;;;;10.20;78.18;99206.31;5035934;28;20370;-71
2021/08/26 02:22:51;;;;;;;;;;;;;;;10.15;79.03;99202.94;5056659;28;19968;-71
2021/08/26 02:25:23;;;;;;;;;;;;;;;10.16;78.68;99207.19;5074882;28;19925;-70
2021/08/26 02:27:52;;;;;;;;;;;;;;;10.00;78.99;99203.03;5061002;28;19925;-73
2021/08/26 02:30:21;;;;;;;;;;;;;;;10.02;79.34;99201.31;5056580;28;19924;-71
2021/08/26 02:32:49;;;;;;;;;;;;;;;9.80;79.50;99194.63;5055402;28;20284;-72
2021/08/26 02:35:19;;;;;;;;;;;;;;;9.80;80.39;99189.53;5060917;28;20404;-71
2021/08/26 02:37:49;;;;;;;;;;;;;;;9.90;80.30;99181.00;5055353;28;20020;-71
2021/08/26 02:40:18;;;;;;;;;;;;;;;10.00;80.31;99182.63;5057209;28;19931;-72
2021/08/26 02:42:50;;;;;;;;;;;;;;;10.00;80.72;99182.63;5054582;28;19928;-71
2021/08/26 02:45:19;;;;;;;;;;;;;;;9.98;80.34;99179.25;5053867;28;20397;-71
2021/08/26 02:47:48;;;;;;;;;;;;;;;10.01;80.81;99174.97;5057889;28;19928;-71
2021/08/26 02:50:17;;;;;;;;;;;;;;;10.05;80.66;99175.81;5063485;28;19928;-71
2021/08/26 02:52:53;;;;;;;;;;;;;;;9.97;80.80;99168.19;5061357;28;20293;-71
2021/08/26 02:55:22;;;;;;;;;;;;;;;9.98;80.73;99161.41;5068963;28;20406;-71
2021/08/26 02:57:51;;;;;;;;;;;;;;;10.14;81.10;99160.47;5053478;28;19970;-71
2021/08/26 03:00:23;;;;;;;;;;;;;;;10.06;80.59;99157.09;5055382;28;19924;-70
2021/08/26 03:02:52;;;;;;;;;;;;;;;9.98;81.19;99149.47;5055055;28;19947;-71
2021/08/26 03:05:24;;;;;;;;;;;;;;;9.97;81.10;99150.34;5051128;28;21236;-71
2021/08/26 03:07:56;;;;;;;;;;;;;;;9.98;81.25;99144.38;5054073;28;19994;-71
2021/08/26 03:10:25;;;;;;;;;;;;;;;9.86;80.59;99149.56;5057841;28;20402;-71
2021/08/26 03:12:57;;;;;;;;;;;;;;;9.84;81.42;99145.34;5073370;28;19978;-71
2021/08/26 03:15:27;;;;;;;;;;;;;;;9.91;81.45;99147.00;5072840;28;19924;-71
2021/08/26 03:17:56;;;;;;;;;;;;;;;9.95;81.10;99141.03;5058775;28;19925;-71
2021/08/26 03:20:27;;;;;;;;;;;;;;;9.96;81.49;99145.25;5071359;28;20348;-71
2021/08/26 03:22:58;;;;;;;;;;;;;;;10.02;81.03;99140.13;5082520;28;19924;-75
2021/08/26 03:25:31;;;;;;;;;;;;;;;9.91;81.36;99137.63;5088908;28;19928;-71
2021/08/26 03:28:03;;;;;;;;;;;;;;;9.97;81.55;99134.22;5074597;28;20312;-71
2021/08/26 03:30:35;;;;;;;;;;;;;;;10.14;81.58;99134.97;5075641;28;19963;-71
2021/08/26 03:33:04;;;;;;;;;;;;;;;10.12;81.24;99126.50;5057317;28;19924;-73
2021/08/26 03:35:33;;;;;;;;;;;;;;;10.12;80.86;99123.09;5083930;28;20365;-71
2021/08/26 03:38:04;;;;;;;;;;;;;;;10.34;81.22;99117.78;5092015;28;19924;-71
2021/08/26 03:40:36;;;;;;;;;;;;;;;10.33;80.90;99118.66;5080018;28;20053;-71
2021/08/26 03:43:08;;;;;;;;;;;;;;;10.46;81.33;99117.66;5056175;28;19970;-71
2021/08/26 03:45:39;;;;;;;;;;;;;;;10.40;80.96;99122.84;5074086;28;19961;-71
2021/08/26 03:48:08;;;;;;;;;;;;;;;10.40;81.07;99120.28;5077423;28;20397;-71
2021/08/26 03:50:37;;;;;;;;;;;;;;;10.28;80.86;99130.59;5085843;28;19977;-71
2021/08/26 03:53:11;;;;;;;;;;;;;;;10.23;81.26;99137.44;5077717;28;20401;-71
2021/08/26 03:55:40;;;;;;;;;;;;;;;10.45;81.03;99131.31;5083482;28;19924;-71
2021/08/26 03:58:09;;;;;;;;;;;;;;;10.63;80.84;99133.66;5077095;28;19925;-72
2021/08/26 04:00:41;;;;;;;;;;;;;;;10.71;80.61;99133.59;5080466;28;20278;-71
2021/08/26 04:03:10;;;;;;;;;;;;;;;10.73;80.26;99135.28;5076492;28;20023;-71
2021/08/26 04:05:39;;;;;;;;;;;;;;;10.73;80.34;99142.91;5084835;28;20018;-71
2021/08/26 04:08:16;;;;;;;;;;;;;;;10.57;80.21;99141.38;5079212;28;19928;-71
2021/08/26 04:10:52;;;;;;;;;;;;;;;10.55;80.53;99135.47;5091619;28;19924;-71
2021/08/26 04:13:27;;;;;;;;;;;;;;;10.62;80.74;99133.69;5080026;28;20277;-71
2021/08/26 04:15:59;;;;;;;;;;;;;;;10.51;80.32;99127.84;5059674;28;20234;-71
2021/08/26 04:18:28;;;;;;;;;;;;;;;10.32;80.53;99131.44;5079622;28;19928;-71
2021/08/26 04:20:57;;;;;;;;;;;;;;;10.44;81.17;99124.50;5090653;28;19970;-71
2021/08/26 04:23:27;;;;;;;;;;;;;;;10.61;80.89;99122.63;5079486;28;19925;-72
2021/08/26 04:25:57;;;;;;;;;;;;;;;10.67;81.02;99120.03;5095126;28;19931;-72
2021/08/26 04:28:26;;;;;;;;;;;;;;;10.73;81.26;99119.09;5059663;28;19925;-71
2021/08/26 04:30:54;;;;;;;;;;;;;;;10.85;81.38;99120.69;5093850;28;19970;-71
2021/08/26 04:33:23;;;;;;;;;;;;;;;10.87;81.09;99117.25;5075939;28;20026;-72
2021/08/26 04:35:52;;;;;;;;;;;;;;;10.92;80.90;99114.66;5082811;28;20376;-71
2021/08/26 04:38:20;;;;;;;;;;;;;;;11.14;81.37;99114.38;5079735;28;19924;-71
2021/08/26 04:40:51;;;;;;;;;;;;;;;11.28;80.76;99117.59;5079513;28;19924;-71
2021/08/26 04:43:20;;;;;;;;;;;;;;;11.44;80.33;99121.66;5070491;28;19924;-71
2021/08/26 04:45:52;;;;;;;;;;;;;;;11.50;80.21;99123.28;5064653;28;19924;-71
2021/08/26 04:48:24;;;;;;;;;;;;;;;11.60;79.99;99118.88;5066939;28;19924;-71
2021/08/26 04:50:53;;;;;;;;;;;;;;;11.69;79.78;99124.75;5082140;28;20457;-71
2021/08/26 04:53:24;;;;;;;;;;;;;;;11.77;79.46;99120.38;5079791;28;20358;-71
2021/08/26 04:55:55;;;;;;;;;;;;;;;11.86;79.03;99120.25;5088485;28;19932;-71
2021/08/26 04:58:24;;;;;;;;;;;;;;;11.90;78.70;99124.44;5076255;28;19930;-71
2021/08/26 05:00:53;;;;;;;;;;;;;;;11.90;78.89;99114.19;5076675;28;19968;-71
2021/08/26 05:03:26;;;;;;;;;;;;;;;11.99;78.70;99108.97;5079673;28;19928;-71
2021/08/26 05:05:56;;;;;;;;;;;;;;;11.99;78.28;99108.13;5080136;28;19924;-71
2021/08/26 05:08:25;;;;;;;;;;;;;;;11.94;77.73;99110.75;5088117;28;20302;-71
2021/08/26 05:10:56;;;;;;;;;;;;;;;11.96;77.88;99103.03;5075983;28;20437;-71
2021/08/26 05:13:25;;;;;;;;;;;;;;;11.94;77.59;99103.09;5077867;28;19924;-71
2021/08/26 05:15:53;;;;;;;;;;;;;;;11.81;77.52;99114.34;5076615;28;20026;-71
2021/08/26 05:18:23;;;;;;;;;;;;;;;11.94;77.96;99100.53;5087848;28;19976;-71
2021/08/26 05:20:51;;;;;;;;;;;;;;;11.98;77.52;99104.72;5038986;28;20448;-71
2021/08/26 05:23:20;;;;;;;;;;;;;;;11.78;77.72;99104.16;5035811;28;20392;-71
2021/08/26 05:25:49;;;;;;;;;;;;;;;11.50;78.15;99099.44;5036484;28;19972;-71
2021/08/26 05:28:19;;;;;;;;;;;;;;;11.22;78.57;99107.47;5049378;28;19937;-71
2021/08/26 05:30:48;;;;;;;;;;;;;;;11.04;79.34;99099.19;5044338;28;19944;-71
2021/08/26 05:33:17;;;;;;;;;;;;;;;11.03;79.82;99094.94;5036996;28;19933;-71
2021/08/26 05:35:45;;;;;;;;;;;;;;;11.03;80.15;99097.50;5044959;28;20580;-71
2021/08/26 05:38:14;;;;;;;;;;;;;;;11.03;80.01;99095.81;5036226;28;19925;-74
2021/08/26 05:40:43;;;;;;;;;;;;;;;11.01;80.29;99101.78;5045385;28;19931;-71
2021/08/26 05:43:11;;;;;;;;;;;;;;;11.20;81.12;99104.09;5049908;28;19967;-71
2021/08/26 05:45:41;;;;;;;;;;;;;;;11.23;80.65;99113.41;5037519;28;19976;-71
2021/08/26 05:48:10;;;;;;;;;;;;;;;11.33;80.78;99104.78;5038779;28;20366;-71
2021/08/26 05:50:39;;;;;;;;;;;;;;;11.36;80.90;99109.84;5043943;28;20333;-71
2021/08/26 05:53:08;;;;;;;;;;;;;;;11.20;81.04;99113.47;5034651;28;19956;-71
2021/08/26 05:55:37;;;;;;;;;;;;;;;11.16;81.20;99101.59;5052842;28;19987;-72
2021/08/26 05:58:06;;;;;;;;;;;;;;;11.16;81.48;99109.25;5045313;28;19929;-71
2021/08/26 06:00:35;;;;;;;;;;;;;;;11.35;81.76;99106.44;5040356;28;19964;-72
2021/08/26 06:03:08;;;;;;;;;;;;;;;11.63;81.92;99111.19;5039700;28;19925;-71
2021/08/26 06:05:42;;;;;;;;;;;;;;;11.72;81.54;99114.50;5043675;28;19925;-71
2021/08/26 06:08:11;;;;;;;;;;;;;;;11.73;81.48;99111.06;5033934;28;20012;-70
2021/08/26 06:10:39;;;;;;;;;;;;;;;11.77;81.65;99112.72;5036523;28;19932;-71
2021/08/26 06:13:08;;;;;;;;;;;;;;;11.90;81.58;99119.31;5034763;28;19931;-72
2021/08/26 06:15:40;;;;;;;;;;;;;;;12.07;81.34;99119.91;5038598;28;19925;-71
2021/08/26 06:18:15;;;;;;;;;;;;;;;12.23;81.00;99114.56;5040048;28;19929;-71
2021/08/26 06:20:44;;;;;;;;;;;;;;;12.29;80.45;99107.63;5065958;28;20397;-71
2021/08/26 06:23:12;;;;;;;;;;;;;;;12.32;79.92;99114.41;5093594;28;19989;-71
2021/08/26 06:25:41;;;;;;;;;;;;;;;12.25;79.35;99115.38;5095052;28;20026;-71
2021/08/26 06:28:10;;;;;;;;;;;;;;;12.21;79.55;99114.59;5088121;28;19939;-71
2021/08/26 06:30:39;;;;;;;;;;;;;;;12.22;79.72;99115.41;5087952;28;20019;-71
2021/08/26 06:33:08;;;;;;;;;;;;;;;12.07;79.80;99117.34;5078501;28;19924;-71
2021/08/26 06:35:39;;;;;;;;;;;;;;;11.99;79.84;99129.44;5060039;28;19940;-71
2021/08/26 06:38:09;;;;;;;;;;;;;;;12.00;80.19;99126.00;5089139;28;20380;-70
2021/08/26 06:40:37;;;;;;;;;;;;;;;12.01;80.29;99122.56;5081696;28;20371;-69
2021/08/26 06:43:09;;;;;;;;;;;;;;;11.97;80.39;99115.78;5094448;28;19931;-75
2021/08/26 06:45:38;;;;;;;;;;;;;;;12.05;80.35;99113.13;5075067;28;19959;-71
2021/08/26 06:48:07;;;;;;;;;;;;;;;12.00;80.39;99110.66;5073918;28;19970;-70
2021/08/26 06:50:36;;;;;;;;;;;;;;;12.03;80.59;99115.72;5074123;28;19924;-70
2021/08/26 06:53:07;;;;;;;;;;;;;;;12.12;80.52;99114.72;5074605;28;20334;-70
2021/08/26 06:55:36;;;;;;;;;;;;;;;12.24;80.23;99113.69;5074282;28;20370;-69
2021/08/26 06:58:04;;;;;;;;;;;;;;;12.15;80.35;99109.56;5074497;28;19967;-69
2021/08/26 07:00:33;;;;;;;;;;;;;;;12.17;80.39;99106.97;5074884;28;20003;-70
2021/08/26 07:03:02;;;;;;;;;;;;;;;12.25;80.12;99105.13;5074033;28;20280;-69
2021/08/26 07:05:31;;;;;;;;;;;;;;;12.31;80.22;99097.38;5074174;28;19924;-70
2021/08/26 07:08:00;;;;;;;;;;;;;;;12.48;80.24;99087.66;5074159;28;20385;-70
2021/08/26 07:10:31;;;;;;;;;;;;;;;12.58;80.14;99101.97;5074061;28;19928;-69
2021/08/26 07:13:01;;;;;;;;;;;;;;;12.57;80.04;99093.44;5056307;28;20003;-70
2021/08/26 07:15:33;;;;;;;;;;;;;;;12.62;80.02;99090.84;5073994;28;19929;-71
2021/08/26 07:18:03;;;;;;;;;;;;;;;12.66;79.95;99092.47;5073966;28;19990;-71
2021/08/26 07:20:31;;;;;;;;;;;;;;;12.66;79.65;99095.00;5074002;28;19928;-70
2021/08/26 07:23:00;;;;;;;;;;;;;;;12.67;79.75;99104.38;5072946;28;20289;-70
2021/08/26 07:25:31;;;;;;;;;;;;;;;12.78;80.04;99097.34;5074399;28;20312;-70
2021/08/26 07:28:00;;;;;;;;;;;;;;;12.92;79.84;99095.38;5074249;28;20286;-70
2021/08/26 07:30:28;;;;;;;;;;;;;;;12.87;79.53;99092.03;5073900;28;19979;-71
2021/08/26 07:32:57;;;;;;;;;;;;;;;12.86;79.94;99100.59;5073842;28;19951;-70
2021/08/26 07:35:26;;;;;;;;;;;;;;;13.07;79.48;99100.22;5073898;28;19928;-71
2021/08/26 07:37:57;;;;;;;;;;;;;;;13.26;79.34;99106.66;5056158;28;19925;-70
2021/08/26 07:40:26;;;;;;;;;;;;;;;13.32;78.96;99105.66;5073710;28;19931;-70
2021/08/26 07:42:56;;;;;;;;;;;;;;;13.25;79.14;99104.09;5073636;28;19947;-70
2021/08/26 07:45:26;;;;;;;;;;;;;;;13.36;79.03;99104.75;5074098;28;19925;-70
2021/08/26 07:47:55;;;;;;;;;;;;;;;13.48;78.82;99117.31;5055952;28;19924;-71
2021/08/26 07:50:24;;;;;;;;;;;;;;;13.42;78.70;99118.28;5073845;28;20023;-71
2021/08/26 07:52:52;;;;;;;;;;;;;;;13.30;78.74;99123.66;5073640;28;19928;-71
2021/08/26 07:55:21;;;;;;;;;;;;;;;13.24;79.38;99123.78;5074282;28;19924;-70
2021/08/26 07:57:50;;;;;;;;;;;;;;;13.39;79.39;99123.44;5073552;28;19986;-70
2021/08/26 08:00:20;;;;;;;;;;;;;;;13.65;79.36;99124.63;5073624;28;19924;-70
2021/08/26 08:02:49;;;;;;;;;;;;;;;13.78;79.15;99131.16;5073660;28;20370;-70
2021/08/26 08:05:18;;;;;;;;;;;;;;;13.89;78.69;99131.78;5073901;28;19924;-71
2021/08/26 08:07:47;;;;;;;;;;;;;;;13.93;78.71;99116.28;5073322;28;19924;-72
2021/08/26 08:10:16;;;;;;;;;;;;;;;13.97;78.80;99120.44;5055462;28;19960;-72
2021/08/26 08:12:45;;;;;;;;;;;;;;;14.04;78.94;99123.69;5073657;28;19925;-72
2021/08/26 08:15:14;;;;;;;;;;;;;;;14.11;78.83;99117.53;5073398;28;20281;-72
2021/08/26 08:17:44;;;;;;;;;;;;;;;14.09;78.84;99116.75;5073234;28;20012;-72
2021/08/26 08:20:13;;;;;;;;;;;;;;;14.06;78.97;99111.66;5073226;28;19924;-72
2021/08/26 08:22:41;;;;;;;;;;;;;;;14.05;79.40;99110.84;5073399;28;19974;-72
2021/08/26 08:25:12;;;;;;;;;;;;;;;13.91;79.10;99117.19;5073370;28;20278;-72
2021/08/26 08:27:41;;;;;;;;;;;;;;;13.92;79.29;99103.47;5073416;28;19928;-72
2021/08/26 08:30:10;;;;;;;;;;;;;;;13.78;79.36;99105.50;5055383;28;19959;-73
2021/08/26 08:32:39;;;;;;;;;;;;;;;13.56;79.86;99114.53;5073176;28;19924;-73
2021/08/26 08:35:10;;;;;;;;;;;;;;;13.56;80.13;99117.09;5058504;28;20336;-72
2021/08/26 08:37:39;;;;;;;;;;;;;;;13.68;80.46;99114.28;5076782;28;19963;-72
2021/08/26 08:40:08;;;;;;;;;;;;;;;13.60;80.53;99116.19;5076640;28;19925;-72
2021/08/26 08:42:37;;;;;;;;;;;;;;;13.68;80.88;99110.00;5076641;28;19924;-72
2021/08/26 08:45:06;;;;;;;;;;;;;;;13.78;80.76;99108.06;5076522;28;19924;-72
2021/08/26 08:47:40;;;;;;;;;;;;;;;13.71;80.60;99111.66;5076487;28;19925;-72
2021/08/26 08:50:12;;;;;;;;;;;;;;;13.66;80.85;99100.66;5076725;28;19924;-72
2021/08/26 08:52:42;;;;;;;;;;;;;;;13.53;81.04;99094.13;5058361;28;19929;-72
2021/08/26 08:55:12;;;;;;;;;;;;;;;13.52;81.50;99098.41;5076188;28;19925;-72
2021/08/26 08:57:43;;;;;;;;;;;;;;;13.41;81.86;99085.81;5076139;28;20365;-72
2021/08/26 09:00:14;;;;;;;;;;;;;;;13.30;82.11;99082.66;5076154;28;20404;-73
2021/08/26 09:02:43;;;;;;;;;;;;;;;13.28;82.35;99081.84;5076239;28;19932;-72
2021/08/26 09:05:13;;;;;;;;;;;;;;;13.29;83.00;99090.38;5076311;28;19950;-72
2021/08/26 09:07:42;;;;;;;;;;;;;;;13.38;83.04;99091.03;5076553;28;19928;-73
2021/08/26 09:10:12;;;;;;;;;;;;;;;13.50;82.77;99089.06;5076378;28;19924;-73
2021/08/26 09:12:45;;;;;;;;;;;;;;;13.40;82.92;99094.41;5076530;28;19928;-73
2021/08/26 09:15:14;;;;;;;;;;;;;;;13.58;83.27;99092.31;5076152;28;20007;-73
2021/08/26 09:17:44;;;;;;;;;;;;;;;13.66;82.91;99095.53;5076131;28;20381;-72
2021/08/26 09:20:17;;;;;;;;;;;;;;;13.55;82.50;99094.94;5076112;28;19972;-73
2021/08/26 09:22:47;;;;;;;;;;;;;;;13.48;82.66;99085.69;5075934;28;19930;-73
2021/08/26 09:25:24;;;;;;;;;;;;;;;13.55;82.70;99079.53;5075563;28;19928;-73
2021/08/26 09:27:53;;;;;;;;;;;;;;;13.43;83.04;99078.97;5075923;28;19931;-73
2021/08/26 09:30:22;;;;;;;;;;;;;;;13.49;83.12;99069.41;5075749;28;20395;-74
2021/08/26 09:32:51;;;;;;;;;;;;;;;13.49;83.03;99046.34;5075653;28;19925;-73
2021/08/26 09:35:22;;;;;;;;;;;;;;;13.61;83.38;99046.06;5075700;28;19931;-73
2021/08/26 09:37:53;;;;;;;;;;;;;;;13.69;83.18;99039.03;5075941;28;20335;-73
2021/08/26 09:40:22;;;;;;;;;;;;;;;13.74;83.45;99050.03;5075683;28;20425;-73
2021/08/26 09:42:57;;;;;;;;;;;;;;;13.75;83.35;99049.19;5075863;28;20336;-73
2021/08/26 09:45:28;;;;;;;;;;;;;;;13.78;83.02;99049.06;5074936;28;20332;-73
2021/08/26 09:48:08;;;;;;;;;;;;;;;13.87;82.92;99064.25;5075766;28;20007;-73
2021/08/26 09:50:44;;;;;;;;;;;;;;;13.97;83.48;99071.69;5075660;28;20392;-73
2021/08/26 09:53:13;;;;;;;;;;;;;;;14.11;83.64;99076.47;5075503;28;19929;-74
2021/08/26 09:55:55;;;;;;;;;;;;;;;14.19;83.41;99072.00;5075406;28;19924;-73
2021/08/26 09:58:26;;;;;;;;;;;;;;;14.33;83.51;99063.97;5075630;28;19925;-73
2021/08/26 10:01:05;;;;;;;;;;;;;;;14.37;83.67;99069.00;5074348;28;19925;-74
2021/08/26 10:03:34;;;;;;;;;;;;;;;14.35;83.39;99057.94;5076024;28;20380;-74
2021/08/26 10:06:05;;;;;;;;;;;;;;;14.29;83.66;99058.06;5075289;28;19932;-75
2021/08/26 10:08:34;;;;;;;;;;;;;;;14.22;83.56;99051.41;5075509;28;19987;-74
2021/08/26 10:11:04;;;;;;;;;;;;;;;14.19;83.23;99048.91;5057324;28;19950;-74
2021/08/26 10:13:33;;;;;;;;;;;;;;;14.28;83.69;99043.53;5057163;28;20329;-74
2021/08/26 10:16:02;;;;;;;;;;;;;;;14.32;83.71;99039.22;5075007;28;20122;-74
2021/08/26 10:18:31;;;;;;;;;;;;;;;14.34;83.52;99035.72;5075001;28;19924;-74
2021/08/26 10:21:00;;;;;;;;;;;;;;;14.36;83.68;99023.69;5074548;28;19948;-73
2021/08/26 10:23:31;;;;;;;;;;;;;;;14.39;83.62;99023.63;5056723;28;19924;-75
2021/08/26 10:26:05;;;;;;;;;;;;;;;14.47;83.25;99020.81;5056995;28;19925;-74
2021/08/26 10:28:35;;;;;;;;;;;;;;;14.49;83.19;99011.38;5074802;28;19924;-74
2021/08/26 10:31:25;;;;;;;;;;;;;;;14.49;83.20;99003.66;5074591;28;19924;-73
2021/08/26 10:34:08;;;;;;;;;;;;;;;14.52;83.15;98998.41;5068886;28;20034;-73
2021/08/26 10:36:44;;;;;;;;;;;;;;;14.39;83.43;98995.38;5074405;28;20015;-74
2021/08/26 10:39:27;;;;;;;;;;;;;;;14.34;83.69;98999.78;5074545;28;19940;-73
2021/08/26 10:41:58;;;;;;;;;;;;;;;14.39;83.71;99013.34;5072215;28;19970;-73
2021/08/26 10:44:41;;;;;;;;;;;;;;;14.51;84.08;99018.16;5056345;28;19924;-74
2021/08/26 10:47:10;;;;;;;;;;;;;;;14.62;84.05;99028.97;5073738;28;20397;-74
2021/08/26 10:49:59;;;;;;;;;;;;;;;14.69;83.96;99032.19;5074266;28;19932;-75
2021/08/26 10:52:43;;;;;;;;;;;;;;;14.67;84.18;99024.53;5074155;28;19931;-74
2021/08/26 10:55:27;;;;;;;;;;;;;;;14.75;84.34;99027.75;5073773;28;19931;-73
2021/08/26 10:58:17;;;;;;;;;;;;;;;14.90;84.60;99020.50;5073193;28;19931;-74
2021/08/26 11:00:46;;;;;;;;;;;;;;;15.04;84.75;99023.50;5074058;28;19924;-74
2021/08/26 11:03:45;;;;;;;;;;;;;;;15.12;84.68;99031.81;5056265;28;19931;-74
2021/08/26 11:06:29;;;;;;;;;;;;;;;15.16;84.72;99030.84;5073964;28;20022;-74
2021/08/26 11:08:58;;;;;;;;;;;;;;;15.21;84.58;99037.50;5073903;28;19925;-73
2021/08/26 11:11:40;;;;;;;;;;;;;;;15.16;84.52;99033.41;5074406;28;19932;-73
2021/08/26 11:14:20;;;;;;;;;;;;;;;15.09;84.37;99022.44;5074305;28;20324;-73
2021/08/26 11:16:51;;;;;;;;;;;;;;;15.12;84.39;99024.09;5074155;28;19924;-73
2021/08/26 11:19:30;;;;;;;;;;;;;;;15.16;84.24;99015.44;5073763;28;19935;-74
2021/08/26 11:22:01;;;;;;;;;;;;;;;15.17;83.84;99015.38;5074026;28;19924;-73
2021/08/26 11:24:41;;;;;;;;;;;;;;;15.31;84.28;98999.50;5074288;28;19973;-73
2021/08/26 11:27:17;;;;;;;;;;;;;;;15.42;84.21;99000.03;5074255;28;19925;-73
2021/08/26 11:29:48;;;;;;;;;;;;;;;15.54;83.78;98999.69;5074383;28;20427;-73
2021/08/26 11:32:19;;;;;;;;;;;;;;;15.68;83.47;99000.09;5074101;28;19932;-73
2021/08/26 11:34:49;;;;;;;;;;;;;;;15.83;83.57;98988.47;5055938;28;19931;-73
2021/08/26 11:37:19;;;;;;;;;;;;;;;15.98;83.29;98996.50;5074120;28;19928;-73
2021/08/26 11:39:52;;;;;;;;;;;;;;;16.04;82.83;99001.44;5073893;28;19924;-74
2021/08/26 11:42:28;;;;;;;;;;;;;;;16.04;82.70;98991.16;5074026;28;19963;-74
2021/08/26 11:45:18;;;;;;;;;;;;;;;15.96;82.19;98998.28;5073845;28;20285;-72
2021/08/26 11:47:49;;;;;;;;;;;;;;;15.83;82.09;98996.19;5068051;28;20019;-72
2021/08/26 11:50:21;;;;;;;;;;;;;;;15.79;82.17;98992.00;5073966;28;19925;-73
2021/08/26 11:52:51;;;;;;;;;;;;;;;15.78;81.44;98993.75;5074346;28;20412;-72
2021/08/26 11:55:34;;;;;;;;;;;;;;;15.77;81.10;98992.06;5073690;28;20374;-72
2021/08/26 11:58:03;;;;;;;;;;;;;;;15.78;81.31;99014.34;5073573;28;19933;-72
2021/08/26 12:00:33;;;;;;;;;;;;;;;15.85;80.82;99018.41;5073685;28;19924;-72
2021/08/26 12:03:03;;;;;;;;;;;;;;;15.83;80.84;99006.47;5073829;28;19925;-72
2021/08/26 12:05:33;;;;;;;;;;;;;;;15.79;80.71;99002.28;5073724;28;19931;-73
2021/08/26 12:08:06;;;;;;;;;;;;;;;15.78;80.66;98993.75;5073843;28;20317;-72
2021/08/26 12:10:39;;;;;;;;;;;;;;;15.79;80.13;98994.56;5077145;28;19936;-72
2021/08/26 12:13:09;;;;;;;;;;;;;;;15.83;80.05;99001.31;5077299;28;19970;-73
2021/08/26 12:15:41;;;;;;;;;;;;;;;15.81;79.81;98998.78;5077337;28;20391;-72
2021/08/26 12:18:14;;;;;;;;;;;;;;;15.79;79.50;98990.28;5059821;28;19963;-72
2021/08/26 12:20:45;;;;;;;;;;;;;;;15.72;79.40;98970.78;5077283;28;19982;-72
2021/08/26 12:23:15;;;;;;;;;;;;;;;15.76;79.49;98974.97;5077160;28;19928;-72
2021/08/26 12:25:44;;;;;;;;;;;;;;;15.78;79.50;98974.91;5077719;28;20031;-73
2021/08/26 12:28:13;;;;;;;;;;;;;;;15.91;79.41;98969.28;5077026;28;19925;-72
2021/08/26 12:30:42;;;;;;;;;;;;;;;15.94;79.36;98966.63;5077163;28;20377;-72
2021/08/26 12:33:17;;;;;;;;;;;;;;;15.97;79.52;98958.81;5076977;28;19925;-72
2021/08/26 12:35:47;;;;;;;;;;;;;;;16.00;79.48;98968.16;5076899;28;19931;-72
2021/08/26 12:38:17;;;;;;;;;;;;;;;15.96;78.94;98969.97;5077289;28;20362;-72
2021/08/26 12:40:51;;;;;;;;;;;;;;;15.98;79.09;98975.91;5076872;28;19924;-72
2021/08/26 12:43:21;;;;;;;;;;;;;;;16.00;79.13;98974.13;5076871;28;20023;-72
2021/08/26 12:45:50;;;;;;;;;;;;;;;15.99;78.86;98972.44;5076668;28;19960;-71
2021/08/26 12:48:28;;;;;;;;;;;;;;;15.96;78.72;98969.13;5076994;28;20298;-72
2021/08/26 12:51:08;;;;;;;;;;;;;;;15.95;78.42;98970.88;5076584;28;19928;-71
2021/08/26 12:53:37;;;;;;;;;;;;;;;15.86;78.63;98968.59;5076608;28;19925;-70
2021/08/26 12:56:06;;;;;;;;;;;;;;;15.85;78.61;98968.66;5076684;28;20291;-72
2021/08/26 12:58:36;;;;;;;;;;;;;;;15.90;78.46;98972.78;5076436;28;19925;-72
2021/08/26 13:01:15;;;;;;;;;;;;;;;15.97;78.58;98971.66;5058516;28;20023;-72
2021/08/26 13:03:47;;;;;;;;;;;;;;;16.04;78.70;98980.00;5076423;28;19928;-72
2021/08/26 13:06:16;;;;;;;;;;;;;;;16.08;78.69;98982.44;5076256;28;20279;-73
2021/08/26 13:08:45;;;;;;;;;;;;;;;16.15;78.92;98992.53;5076277;28;19928;-73
2021/08/26 13:11:15;;;;;;;;;;;;;;;16.12;78.83;98978.03;5078005;28;20412;-73
2021/08/26 13:13:53;;;;;;;;;;;;;;;16.10;78.99;98967.78;5085899;28;19924;-72